createdAt,value
2019-02-05T00:00:59.022Z,21.33
2019-02-05T00:03:29.947Z,24.47
2019-02-05T00:06:01.042Z,23.07
2019-02-05T00:08:32.495Z,24.23
2019-02-05T00:11:03.760Z,29.50
2019-02-05T00:13:34.779Z,29.47
2019-02-05T00:16:06.007Z,30.20
2019-02-05T00:18:37.080Z,31.13
2019-02-05T00:21:08.215Z,21.70
2019-02-05T00:23:40.379Z,23.23
2019-02-05T00:26:11.296Z,42.83
2019-02-05T00:28:43.116Z,39.87
2019-02-05T00:31:13.949Z,23.10
2019-02-05T00:33:45.053Z,18.40
2019-02-05T00:36:16.221Z,21.33
2019-02-05T00:38:46.993Z,30.50
2019-02-05T00:41:17.825Z,19.37
2019-02-05T00:43:48.829Z,19.20
2019-02-05T00:46:19.660Z,18.53
2019-02-05T00:48:50.795Z,15.87
2019-02-05T00:51:21.775Z,13.40
2019-02-05T00:53:52.557Z,10.73
2019-02-05T00:56:23.569Z,11.27
2019-02-05T00:58:54.570Z,12.33
2019-02-05T01:01:25.647Z,10.63
2019-02-05T01:03:56.785Z,13.87
2019-02-05T01:06:27.894Z,13.23
2019-02-05T01:08:59.551Z,13.47
2019-02-05T01:11:30.694Z,14.30
2019-02-05T01:14:01.477Z,11.97
2019-02-05T01:16:32.599Z,12.70
2019-02-05T01:19:03.739Z,11.13
2019-02-05T01:21:34.493Z,13.00
2019-02-05T01:24:05.727Z,12.53
2019-02-05T01:26:36.492Z,11.33
2019-02-05T01:29:07.576Z,11.57
2019-02-05T01:31:38.547Z,12.20
2019-02-05T01:34:09.647Z,13.50
2019-02-05T01:36:40.677Z,12.17
2019-02-05T01:39:11.644Z,12.27
2019-02-05T01:41:42.549Z,10.80
2019-02-05T01:44:13.835Z,12.40
2019-02-05T01:46:44.590Z,14.17
2019-02-05T01:49:15.665Z,11.47
2019-02-05T01:51:46.647Z,14.33
2019-02-05T01:54:17.609Z,12.27
2019-02-05T01:56:48.836Z,12.37
2019-02-05T01:59:19.718Z,12.73
2019-02-05T02:01:50.562Z,11.70
2019-02-05T02:04:21.747Z,12.47
2019-02-05T02:06:53.960Z,13.37
2019-02-05T02:09:24.739Z,13.17
2019-02-05T02:11:55.899Z,14.70
2019-02-05T02:14:26.790Z,14.77
2019-02-05T02:16:58.036Z,14.33
2019-02-05T02:19:29.449Z,14.97
2019-02-05T02:22:00.298Z,14.67
2019-02-05T02:24:31.143Z,12.97
2019-02-05T02:27:02.376Z,14.63
2019-02-05T02:29:34.537Z,13.40
2019-02-05T02:32:05.552Z,14.43
2019-02-05T02:34:36.663Z,12.93
2019-02-05T02:37:07.882Z,13.47
2019-02-05T02:39:39.932Z,15.83
2019-02-05T02:42:11.114Z,13.50
2019-02-05T02:44:41.961Z,16.13
2019-02-05T02:47:12.716Z,12.67
2019-02-05T02:49:43.493Z,15.67
2019-02-05T02:52:14.477Z,14.13
2019-02-05T02:54:45.248Z,15.73
2019-02-05T02:57:16.344Z,13.93
2019-02-05T02:59:47.199Z,15.73
2019-02-05T03:02:18.256Z,18.53
2019-02-05T03:04:49.423Z,13.13
2019-02-05T03:07:20.512Z,14.03
2019-02-05T03:09:51.293Z,15.33
2019-02-05T03:12:22.361Z,16.70
2019-02-05T03:14:53.258Z,17.60
2019-02-05T03:17:24.201Z,17.57
2019-02-05T03:19:55.462Z,16.10
2019-02-05T03:22:26.798Z,18.53
2019-02-05T03:24:57.610Z,16.23
2019-02-05T03:27:28.686Z,19.53
2019-02-05T03:29:59.960Z,18.37
2019-02-05T03:32:31.052Z,19.30
2019-02-05T03:35:02.115Z,20.97
2019-02-05T03:37:32.898Z,18.87
2019-02-05T03:40:04.439Z,19.53
2019-02-05T03:42:36.700Z,16.87
2019-02-05T03:45:08.055Z,20.83
2019-02-05T03:47:39.375Z,21.40
2019-02-05T03:50:10.303Z,14.73
2019-02-05T03:52:46.776Z,18.10
2019-02-05T03:55:49.804Z,22.07
2019-02-05T03:58:57.434Z,21.60
2019-02-05T04:01:54.893Z,19.33
2019-02-05T04:04:53.545Z,19.60
2019-02-05T04:08:01.216Z,18.97
2019-02-05T04:11:26.788Z,18.07
2019-02-05T04:14:36.193Z,21.73
2019-02-05T04:18:02.586Z,20.47
2019-02-05T04:20:56.675Z,21.27
2019-02-05T04:23:59.301Z,23.47
2019-02-05T04:26:50.134Z,20.27
2019-02-05T04:29:54.464Z,25.30
2019-02-05T04:32:41.714Z,28.13
2019-02-05T04:35:50.369Z,22.47
2019-02-05T04:38:49.886Z,24.07
2019-02-05T04:41:52.186Z,23.20
2019-02-05T04:45:09.094Z,23.13
2019-02-05T04:48:36.210Z,26.13
2019-02-05T04:51:49.138Z,21.43
2019-02-05T04:55:06.441Z,26.83
2019-02-05T04:58:01.617Z,25.43
2019-02-05T05:01:02.924Z,26.53
2019-02-05T05:03:59.810Z,23.90
2019-02-05T05:07:08.341Z,25.57
2019-02-05T05:09:57.117Z,28.33
2019-02-05T05:12:29.423Z,26.27
2019-02-05T05:15:00.792Z,24.87
2019-02-05T05:17:32.917Z,33.03
2019-02-05T05:20:04.018Z,25.20
2019-02-05T05:22:35.532Z,27.57
2019-02-05T05:25:08.290Z,26.37
2019-02-05T05:27:39.451Z,24.93
2019-02-05T05:30:14.395Z,30.37
2019-02-05T05:32:45.156Z,27.53
2019-02-05T05:35:16.268Z,28.47
2019-02-05T05:37:47.370Z,26.80
2019-02-05T05:40:18.517Z,33.00
2019-02-05T05:42:49.475Z,33.13
2019-02-05T05:45:20.354Z,32.30
2019-02-05T05:47:51.186Z,30.93
2019-02-05T05:50:21.978Z,33.67
2019-02-05T05:52:53.261Z,31.47
2019-02-05T05:55:24.124Z,46.63
2019-02-05T05:57:55.132Z,40.03
2019-02-05T06:00:26.326Z,30.60
2019-02-05T06:02:57.660Z,29.63
2019-02-05T06:05:28.562Z,31.50
2019-02-05T06:07:59.917Z,33.20
2019-02-05T06:10:30.701Z,27.97
2019-02-05T06:13:01.993Z,27.23
2019-02-05T06:15:35.750Z,25.57
2019-02-05T06:18:05.524Z,28.33
2019-02-05T06:20:36.993Z,29.47
2019-02-05T06:23:08.015Z,28.50
2019-02-05T06:25:38.804Z,28.37
2019-02-05T06:28:09.833Z,27.90
2019-02-05T06:30:40.995Z,28.60
2019-02-05T06:33:12.138Z,28.03
2019-02-05T06:35:43.255Z,26.60
2019-02-05T06:38:14.422Z,29.47
2019-02-05T06:40:45.774Z,26.63
2019-02-05T06:43:16.922Z,27.17
2019-02-05T06:45:48.436Z,27.97
2019-02-05T06:48:19.617Z,28.40
2019-02-05T06:50:50.703Z,30.40
2019-02-05T06:53:21.715Z,31.27
2019-02-05T06:55:52.865Z,27.13
2019-02-05T06:58:23.942Z,27.47
2019-02-05T07:00:54.978Z,29.77
2019-02-05T07:03:26.181Z,29.50
2019-02-05T07:05:57.086Z,29.97
2019-02-05T07:08:28.276Z,33.80
2019-02-05T07:10:59.719Z,28.10
2019-02-05T07:13:30.725Z,28.97
2019-02-05T07:16:02.321Z,28.93
2019-02-05T07:18:33.089Z,30.33
2019-02-05T07:21:04.911Z,28.50
2019-02-05T07:23:35.974Z,34.20
2019-02-05T07:26:06.956Z,27.20
2019-02-05T07:28:37.957Z,30.17
2019-02-05T07:31:08.978Z,32.30
2019-02-05T07:33:40.128Z,29.50
2019-02-05T07:36:10.989Z,28.87
2019-02-05T07:38:41.881Z,26.00
2019-02-05T07:41:12.846Z,27.40
2019-02-05T07:43:43.833Z,25.70
2019-02-05T07:46:15.273Z,25.60
2019-02-05T07:48:46.043Z,26.30
2019-02-05T07:51:17.194Z,24.17
2019-02-05T07:53:48.029Z,26.40
2019-02-05T07:56:19.107Z,25.77
2019-02-05T07:58:50.156Z,27.80
2019-02-05T08:01:21.176Z,25.37
2019-02-05T08:03:52.277Z,26.60
2019-02-05T08:06:23.356Z,27.87
2019-02-05T08:08:54.494Z,28.07
2019-02-05T08:11:25.577Z,30.37
2019-02-05T08:13:56.430Z,29.97
2019-02-05T08:16:27.445Z,31.83
2019-02-05T08:18:58.488Z,35.20
2019-02-05T08:21:29.585Z,32.70
2019-02-05T08:24:00.926Z,31.63
2019-02-05T08:26:31.711Z,34.60
2019-02-05T08:29:02.775Z,33.07
2019-02-05T08:31:34.164Z,35.70
2019-02-05T08:34:05.001Z,31.73
2019-02-05T08:36:35.782Z,32.53
2019-02-05T08:39:08.989Z,31.00
2019-02-05T08:41:41.268Z,32.77
2019-02-05T08:44:12.218Z,29.37
2019-02-05T08:46:43.283Z,29.17
2019-02-05T08:49:14.420Z,33.07
2019-02-05T08:51:45.485Z,31.40
2019-02-05T08:54:16.564Z,31.60
2019-02-05T08:56:47.401Z,30.40
2019-02-05T08:59:18.930Z,34.80
2019-02-05T09:01:50.259Z,31.53
2019-02-05T09:04:21.360Z,34.07
2019-02-05T09:06:52.288Z,34.07
2019-02-05T09:09:23.046Z,32.63
2019-02-05T09:11:53.966Z,34.10
2019-02-05T09:14:25.046Z,31.40
2019-02-05T09:16:55.937Z,30.70
2019-02-05T09:19:26.996Z,32.27
2019-02-05T09:21:57.852Z,32.27
2019-02-05T09:24:28.793Z,30.30
2019-02-05T09:26:59.998Z,30.00
2019-02-05T09:29:33.421Z,27.17
2019-02-05T09:32:04.290Z,28.57
2019-02-05T09:34:35.115Z,31.17
2019-02-05T09:37:06.400Z,30.67
2019-02-05T09:39:37.182Z,29.43
2019-02-05T09:42:08.404Z,28.87
2019-02-05T09:44:39.259Z,30.97
2019-02-05T09:47:10.569Z,31.50
2019-02-05T09:49:41.509Z,32.17
2019-02-05T09:52:12.371Z,33.43
2019-02-05T09:54:43.335Z,30.40
2019-02-05T09:57:14.567Z,28.00
2019-02-05T09:59:45.851Z,28.10
2019-02-05T10:02:16.983Z,29.40
2019-02-05T10:04:47.827Z,28.50
2019-02-05T10:07:18.608Z,29.50
2019-02-05T10:09:49.467Z,30.33
2019-02-05T10:12:20.213Z,27.97
2019-02-05T10:14:51.278Z,29.50
2019-02-05T10:17:23.259Z,26.00
2019-02-05T10:19:54.526Z,27.33
2019-02-05T10:22:25.608Z,26.67
2019-02-05T10:24:57.161Z,27.80
2019-02-05T10:27:28.369Z,27.27
2019-02-05T10:29:59.635Z,26.57
2019-02-05T10:32:30.440Z,30.13
2019-02-05T10:35:01.198Z,29.17
2019-02-05T10:37:32.062Z,25.83
2019-02-05T10:40:03.162Z,28.63
2019-02-05T10:42:34.171Z,29.37
2019-02-05T10:45:06.337Z,36.93
2019-02-05T10:47:37.429Z,34.50
2019-02-05T10:50:09.857Z,30.93
2019-02-05T10:52:42.063Z,28.60
2019-02-05T10:55:13.993Z,32.13
2019-02-05T10:57:45.115Z,26.13
2019-02-05T11:00:25.341Z,27.13
2019-02-05T11:02:57.692Z,26.33
2019-02-05T11:05:30.077Z,26.57
2019-02-05T11:08:01.129Z,25.57
2019-02-05T11:10:32.889Z,28.07
2019-02-05T11:13:04.465Z,28.40
2019-02-05T11:15:35.682Z,26.27
2019-02-05T11:18:08.954Z,26.20
2019-02-05T11:20:41.015Z,23.13
2019-02-05T11:23:12.117Z,26.40
2019-02-05T11:25:43.031Z,26.17
2019-02-05T11:28:13.811Z,27.97
2019-02-05T11:30:45.457Z,25.07
2019-02-05T11:33:16.604Z,27.87
2019-02-05T11:35:47.447Z,28.17
2019-02-05T11:38:18.563Z,24.40
2019-02-05T11:40:49.405Z,26.43
2019-02-05T11:43:20.497Z,26.03
2019-02-05T11:45:51.333Z,24.37
2019-02-05T11:48:22.272Z,23.23
2019-02-05T11:50:53.115Z,23.07
2019-02-05T11:53:23.966Z,24.13
2019-02-05T11:55:55.225Z,22.77
2019-02-05T11:58:26.188Z,28.63
2019-02-05T12:01:05.694Z,25.43
2019-02-05T12:03:37.173Z,23.77
2019-02-05T12:06:08.546Z,23.00
2019-02-05T12:08:39.445Z,22.73
2019-02-05T12:11:10.322Z,21.67
2019-02-05T12:13:41.246Z,21.73
2019-02-05T12:16:12.096Z,22.03
2019-02-05T12:18:42.990Z,20.97
2019-02-05T12:21:14.056Z,25.87
2019-02-05T12:23:45.067Z,22.13
2019-02-05T12:26:15.992Z,23.43
2019-02-05T12:28:46.939Z,26.43
2019-02-05T12:31:18.183Z,23.97
2019-02-05T12:33:50.254Z,21.53
2019-02-05T12:36:21.061Z,20.97
2019-02-05T12:38:51.920Z,19.03
2019-02-05T12:41:23.002Z,21.40
2019-02-05T12:43:54.053Z,18.10
2019-02-05T12:46:24.906Z,19.63
2019-02-05T12:48:55.690Z,22.00
2019-02-05T12:51:26.825Z,19.53
2019-02-05T12:53:57.921Z,19.63
2019-02-05T12:56:29.297Z,19.47
2019-02-05T12:59:00.084Z,18.80
2019-02-05T13:01:31.149Z,17.57
2019-02-05T13:04:02.081Z,17.33
2019-02-05T13:06:32.993Z,14.93
2019-02-05T13:09:05.814Z,13.70
2019-02-05T13:11:38.478Z,15.97
2019-02-05T13:14:09.534Z,19.73
2019-02-05T13:16:41.005Z,16.50
2019-02-05T13:19:11.709Z,16.23
2019-02-05T13:21:42.700Z,18.37
2019-02-05T13:24:16.574Z,16.93
2019-02-05T13:26:46.145Z,18.90
2019-02-05T13:29:16.929Z,17.80
2019-02-05T13:31:47.996Z,19.37
2019-02-05T13:34:19.393Z,21.37
2019-02-05T13:36:50.546Z,20.20
2019-02-05T13:39:21.491Z,17.03
2019-02-05T13:41:52.387Z,17.63
2019-02-05T13:44:23.241Z,16.30
2019-02-05T13:46:54.076Z,18.17
2019-02-05T13:49:25.346Z,18.50
2019-02-05T13:51:56.120Z,16.73
2019-02-05T13:54:27.277Z,17.80
2019-02-05T13:56:58.246Z,19.10
2019-02-05T13:59:29.065Z,18.70
2019-02-05T14:02:00.331Z,19.47
2019-02-05T14:04:31.518Z,21.10
2019-02-05T14:07:02.465Z,20.37
2019-02-05T14:09:33.245Z,17.73
2019-02-05T14:12:04.089Z,19.07
2019-02-05T14:14:35.117Z,18.73
2019-02-05T14:17:06.333Z,18.87
2019-02-05T14:19:37.262Z,18.83
2019-02-05T14:22:08.183Z,18.63
2019-02-05T14:24:39.299Z,22.87
2019-02-05T14:27:10.413Z,20.67
2019-02-05T14:29:41.466Z,18.80
2019-02-05T14:32:12.347Z,20.40
2019-02-05T14:34:43.217Z,17.27
2019-02-05T14:37:15.037Z,18.67
2019-02-05T14:39:48.877Z,21.60
2019-02-05T14:42:18.554Z,22.30
2019-02-05T14:44:49.661Z,18.67
2019-02-05T14:47:20.520Z,18.17
2019-02-05T14:49:51.531Z,20.73
2019-02-05T14:52:22.396Z,22.27
2019-02-05T14:54:55.085Z,21.10
2019-02-05T14:57:25.860Z,20.23
2019-02-05T14:59:57.369Z,18.67
2019-02-05T15:02:28.452Z,19.10
2019-02-05T15:04:59.552Z,18.63
2019-02-05T15:07:30.696Z,19.77
2019-02-05T15:10:01.483Z,17.53
2019-02-05T15:12:32.837Z,18.60
2019-02-05T15:15:04.538Z,24.27
2019-02-05T15:17:37.355Z,20.40
2019-02-05T15:20:13.011Z,19.47
2019-02-05T15:22:44.097Z,20.07
2019-02-05T15:25:14.953Z,20.60
2019-02-05T15:27:45.940Z,18.33
2019-02-05T15:30:23.262Z,24.40
2019-02-05T15:33:18.966Z,19.43
2019-02-05T15:35:53.161Z,18.20
2019-02-05T15:38:24.238Z,20.37
2019-02-05T15:40:55.110Z,18.77
2019-02-05T15:43:25.873Z,16.63
2019-02-05T15:45:56.903Z,16.53
2019-02-05T15:48:27.776Z,18.17
2019-02-05T15:50:58.857Z,17.07
2019-02-05T15:53:32.648Z,19.40
2019-02-05T15:56:04.004Z,57.40
2019-02-05T15:58:34.869Z,17.73
2019-02-05T16:01:06.492Z,18.43
2019-02-05T16:03:37.375Z,17.33
2019-02-05T16:06:08.323Z,17.53
2019-02-05T16:08:39.441Z,17.57
2019-02-05T16:11:10.582Z,17.43
2019-02-05T16:13:41.542Z,16.70
2019-02-05T16:16:12.611Z,16.33
2019-02-05T16:18:45.740Z,16.50
2019-02-05T16:21:16.793Z,16.57
2019-02-05T16:23:48.535Z,17.33
2019-02-05T16:26:19.551Z,16.20
2019-02-05T16:28:50.325Z,16.33
2019-02-05T16:31:21.240Z,30.53
2019-02-05T16:33:52.720Z,16.53
2019-02-05T16:36:23.588Z,17.93
2019-02-05T16:38:54.436Z,16.27
2019-02-05T16:41:25.754Z,16.47
2019-02-05T16:43:56.512Z,17.87
2019-02-05T16:46:27.448Z,17.17
2019-02-05T16:48:58.442Z,20.07
2019-02-05T16:51:29.706Z,16.80
2019-02-05T16:54:00.557Z,20.47
2019-02-05T16:56:31.332Z,18.20
2019-02-05T16:59:02.730Z,16.47
2019-02-05T17:01:33.772Z,16.50
2019-02-05T17:04:05.126Z,22.20
2019-02-05T17:06:36.210Z,18.37
2019-02-05T17:09:14.326Z,17.83
2019-02-05T17:11:45.500Z,20.07
2019-02-05T17:14:16.366Z,18.07
2019-02-05T17:16:47.377Z,20.00
2019-02-05T17:19:18.189Z,18.37
2019-02-05T17:21:48.988Z,16.57
2019-02-05T17:24:20.061Z,17.00
2019-02-05T17:26:51.162Z,14.80
2019-02-05T17:29:21.940Z,16.13
2019-02-05T17:31:53.037Z,14.63
2019-02-05T17:34:23.878Z,15.23
2019-02-05T17:36:55.690Z,16.97
2019-02-05T17:39:26.556Z,18.77
2019-02-05T17:41:57.720Z,17.23
2019-02-05T17:44:29.172Z,13.87
2019-02-05T17:47:00.309Z,14.33
2019-02-05T17:49:31.323Z,12.97
2019-02-05T17:52:02.192Z,14.20
2019-02-05T17:54:33.315Z,17.17
2019-02-05T17:57:04.174Z,17.13
2019-02-05T17:59:35.161Z,19.57
2019-02-05T18:02:06.022Z,20.67
2019-02-05T18:04:37.162Z,16.53
2019-02-05T18:07:08.342Z,17.50
2019-02-05T18:09:39.510Z,15.83
2019-02-05T18:12:10.642Z,20.90
2019-02-05T18:14:41.511Z,23.60
2019-02-05T18:17:12.576Z,24.13
2019-02-05T18:19:43.469Z,21.30
2019-02-05T18:22:14.457Z,19.47
2019-02-05T18:24:45.533Z,19.80
2019-02-05T18:27:16.636Z,20.27
2019-02-05T18:29:48.033Z,21.83
2019-02-05T18:32:19.257Z,21.80
2019-02-05T18:34:50.032Z,26.63
2019-02-05T18:37:20.920Z,20.20
2019-02-05T18:39:52.403Z,19.93
2019-02-05T18:42:23.758Z,18.70
2019-02-05T18:44:54.641Z,20.57
2019-02-05T18:47:25.747Z,20.20
2019-02-05T18:49:56.736Z,19.60
2019-02-05T18:52:28.074Z,19.07
2019-02-05T18:54:59.142Z,21.33
2019-02-05T18:57:30.453Z,20.13
2019-02-05T19:00:01.375Z,18.40
2019-02-05T19:02:34.162Z,19.07
2019-02-05T19:05:05.724Z,20.57
2019-02-05T19:07:36.581Z,18.67
2019-02-05T19:10:08.239Z,22.37
2019-02-05T19:12:39.627Z,22.13
2019-02-05T19:15:15.923Z,22.30
2019-02-05T19:17:46.806Z,20.37
2019-02-05T19:20:17.751Z,24.03
2019-02-05T19:22:48.778Z,26.30
2019-02-05T19:25:27.045Z,21.73
2019-02-05T19:27:58.070Z,21.60
2019-02-05T19:30:30.333Z,20.63
2019-02-05T19:33:01.432Z,18.47
2019-02-05T19:35:33.746Z,20.93
2019-02-05T19:38:05.121Z,19.60
2019-02-05T19:40:36.678Z,19.43
2019-02-05T19:43:07.849Z,19.80
2019-02-05T19:45:51.375Z,19.40
2019-02-05T19:48:30.814Z,16.57
2019-02-05T19:51:02.281Z,20.33
2019-02-05T19:53:33.182Z,20.70
2019-02-05T19:56:04.518Z,17.90
2019-02-05T19:58:35.792Z,19.93
2019-02-05T20:01:06.856Z,19.23
2019-02-05T20:03:39.013Z,21.93
2019-02-05T20:06:10.213Z,21.13
2019-02-05T20:08:41.083Z,19.47
2019-02-05T20:11:12.191Z,19.00
2019-02-05T20:13:43.266Z,19.60
2019-02-05T20:16:14.399Z,18.77
2019-02-05T20:18:45.332Z,20.93
2019-02-05T20:21:16.414Z,19.50
2019-02-05T20:23:47.672Z,21.47
2019-02-05T20:26:18.928Z,20.07
2019-02-05T20:28:50.210Z,19.80
2019-02-05T20:31:21.300Z,20.07
2019-02-05T20:33:52.088Z,21.27
2019-02-05T20:36:23.169Z,20.40
2019-02-05T20:38:54.450Z,22.03
2019-02-05T20:41:25.330Z,22.60
2019-02-05T20:43:56.424Z,21.23
2019-02-05T20:46:27.408Z,22.80
2019-02-05T20:48:58.213Z,21.43
2019-02-05T20:51:28.976Z,22.40
2019-02-05T20:53:59.853Z,18.97
2019-02-05T20:56:31.437Z,21.50
2019-02-05T20:59:02.520Z,21.50
2019-02-05T21:01:33.375Z,21.30
2019-02-05T21:04:04.513Z,20.20
2019-02-05T21:06:35.370Z,20.93
2019-02-05T21:09:15.905Z,22.37
2019-02-05T21:11:47.050Z,21.90
2019-02-05T21:14:18.140Z,23.60
2019-02-05T21:16:49.213Z,22.93
2019-02-05T21:19:20.050Z,22.10
2019-02-05T21:21:51.341Z,21.80
2019-02-05T21:24:22.397Z,21.17
2019-02-05T21:26:53.461Z,22.30
2019-02-05T21:29:24.869Z,21.50
2019-02-05T21:31:55.650Z,21.63
2019-02-05T21:34:26.439Z,20.13
2019-02-05T21:36:57.897Z,21.70
2019-02-05T21:39:28.872Z,21.30
2019-02-05T21:41:59.870Z,21.83
2019-02-05T21:44:31.211Z,20.40
2019-02-05T21:47:02.002Z,20.67
2019-02-05T21:49:34.365Z,20.97
2019-02-05T21:52:05.485Z,19.20
2019-02-05T21:54:36.577Z,18.30
2019-02-05T21:57:07.597Z,18.57
2019-02-05T21:59:38.893Z,17.87
2019-02-05T22:02:09.730Z,18.37
2019-02-05T22:04:40.546Z,19.27
2019-02-05T22:07:11.970Z,26.80
2019-02-05T22:09:43.074Z,24.30
2019-02-05T22:12:14.465Z,21.67
2019-02-05T22:14:45.723Z,22.17
2019-02-05T22:17:18.351Z,21.70
2019-02-05T22:19:49.249Z,22.50
2019-02-05T22:22:20.220Z,24.53
2019-02-05T22:24:51.025Z,24.50
2019-02-05T22:27:22.485Z,19.23
2019-02-05T22:29:53.994Z,19.87
2019-02-05T22:32:25.226Z,19.40
2019-02-05T22:34:56.012Z,19.43
2019-02-05T22:37:26.998Z,20.10
2019-02-05T22:39:58.004Z,22.67
2019-02-05T22:42:28.770Z,20.97
2019-02-05T22:45:00.133Z,20.33
2019-02-05T22:47:30.939Z,20.70
2019-02-05T22:50:02.003Z,27.00
2019-02-05T22:52:33.983Z,23.43
2019-02-05T22:55:05.673Z,26.50
2019-02-05T22:57:36.793Z,19.37
2019-02-05T23:00:16.825Z,22.53
2019-02-05T23:02:48.633Z,17.93
2019-02-05T23:05:42.783Z,19.40
2019-02-05T23:08:13.858Z,21.47
2019-02-05T23:11:12.364Z,19.80
2019-02-05T23:13:43.434Z,18.07
2019-02-05T23:16:15.546Z,19.37
2019-02-05T23:18:46.309Z,19.33
2019-02-05T23:21:17.404Z,19.87
2019-02-05T23:23:48.402Z,20.03
2019-02-05T23:26:23.856Z,19.83
2019-02-05T23:28:53.370Z,21.87
2019-02-05T23:31:24.470Z,20.87
2019-02-05T23:33:55.220Z,20.50
2019-02-05T23:36:26.386Z,18.97
2019-02-05T23:38:57.630Z,22.07
2019-02-05T23:41:28.774Z,19.77
2019-02-05T23:43:59.545Z,19.60
2019-02-05T23:46:30.409Z,23.17
2019-02-05T23:49:01.269Z,23.10
2019-02-05T23:51:32.052Z,27.70
2019-02-05T23:54:02.825Z,21.70
2019-02-05T23:56:33.957Z,22.07
2019-02-05T23:59:04.953Z,23.70
